This is the latest recevied weather packets stored in our database for station/object K2ATL. If no packets are shown the sender has not sent any weather packets the latest 10 day(s).
| Time | Temp. | Humidity | Pressure | Rain* | Wind** | Luminosity | Snow |
|---|---|---|---|---|---|---|---|
| 1777848190 | 15.56° C | 41% | 1102 hPa | 0 mm | - | 47 W/m² | - |
| 1777847888 | 16.11° C | 41% | 1101.9 hPa | 0 mm | - | 56 W/m² | - |
| 1777847585 | 16.11° C | 43% | 1102.1 hPa | 0 mm | - | 48 W/m² | - |
| 1777847281 | 16.11° C | 45% | 1102.1 hPa | 0 mm | - | 79 W/m² | - |
| 1777846979 | 16.11° C | 47% | 1102 hPa | 0 mm | - | 70 W/m² | - |
| 1777846677 | 15.56° C | 46% | 1102 hPa | 0 mm | - | 95 W/m² | - |
| 1777846375 | 16.67° C | 43% | 1102.1 hPa | 0 mm | - | 115 W/m² | - |
| 1777846071 | 16.11° C | 45% | 1102.1 hPa | 0 mm | - | 165 W/m² | - |
| 1777845768 | 16.67° C | 42% | 1102 hPa | 0 mm | - | 134 W/m² | - |
| 1777845465 | 16.11° C | 44% | 1102 hPa | 0 mm | - | 59 W/m² | - |
| 1777845162 | 16.11° C | 42% | 1102.2 hPa | 0 mm | - | 67 W/m² | - |
| 1777844860 | 16.11° C | 44% | 1102 hPa | 0 mm | - | 57 W/m² | - |
| 1777844556 | 16.11° C | 42% | 1102.1 hPa | 0 mm | - | 59 W/m² | - |
| 1777844255 | 16.67° C | 41% | 1102.1 hPa | 0 mm | - | 62 W/m² | - |
| 1777843952 | 15° C | 42% | 1102.2 hPa | 0 mm | - | 389 W/m² | - |
| 1777843648 | 16.67° C | 39% | 1102.2 hPa | 0 mm | - | 252 W/m² | - |
| 1777843346 | 16.11° C | 40% | 1102.2 hPa | 0 mm | - | 496 W/m² | - |
| 1777843044 | 15.56° C | 40% | 1102.4 hPa | 0 mm | - | 493 W/m² | - |
| 1777842739 | 16.67° C | 38% | 1102.3 hPa | 0 mm | - | 537 W/m² | - |
| 1777842435 | 16.67° C | 39% | 1102.4 hPa | 0 mm | - | 552 W/m² | - |
| 1777842133 | 16.67° C | 41% | 1102.3 hPa | 0 mm | - | 574 W/m² | - |
| 1777841828 | 16.11° C | 40% | 1102.4 hPa | 0 mm | - | 593 W/m² | - |
| 1777841524 | 16.67° C | 38% | 1102.8 hPa | 0 mm | - | 604 W/m² | - |
| 1777841221 | 17.22° C | 39% | 1102.5 hPa | 0 mm | - | 622 W/m² | - |
| 1777840919 | 16.11° C | 43% | 1102.5 hPa | 0 mm | - | 639 W/m² | - |
* Rain latest hour (hover to see other rain measurements)
** Current wind speed in m/s (hover to see current wind gust speed)